Almena, Wisconsin
Current Conditions -  °F | °C
As of 6:15 PM on Sunday 23 Nov 2014 (Local Time) from KUBE Reporting Station
Drizzle Drizzle  
Wind Chill: 28°   Ceiling: 1300
Heat Index: 36°   Visibility: 2.5mi
Dew Point: 36°   Wind: 10mph
Humidity: 100%   Direction: 340°NNW
Pressure: 29.34"   Gusts: NA
Location:  45.42°N, 92.03°W
Report Text: KUBE 240015Z AUTO 34009KT 2 1/2SM +DZ OVC013 02/02 A2934 RMK AO2
Loading
Personal Weather Stations






























Interactive Weather Map New forecast layout! Learn more

10-Day Weather Forecast

Advertisements
Track Severe Weather on mobile